createdAt,value
2022-11-02T00:02:15.083Z,100216.75
2022-11-02T00:08:07.249Z,100208.41
2022-11-02T00:10:41.208Z,100223.88
2022-11-02T00:13:40.686Z,100214.03
2022-11-02T00:16:31.109Z,100225.31
2022-11-02T00:22:30.759Z,100216.97
2022-11-02T00:25:16.446Z,100198.97
2022-11-02T00:27:53.284Z,100218.41
2022-11-02T00:30:42.045Z,100216.31
2022-11-02T00:36:44.313Z,100237.91
2022-11-02T00:39:23.873Z,100235.56
2022-11-02T00:42:00.722Z,100235.91
2022-11-02T00:44:55.272Z,100242.97
2022-11-02T00:47:42.205Z,100244.16
2022-11-02T00:50:15.736Z,100236.50
2022-11-02T00:53:10.501Z,100245.81
2022-11-02T00:55:45.440Z,100243.03
2022-11-02T00:58:52.221Z,100247.44
2022-11-02T01:01:42.203Z,100249.69
2022-11-02T01:04:23.771Z,100249.22
2022-11-02T01:07:40.345Z,100265.22
2022-11-02T01:10:13.370Z,100257.84
2022-11-02T01:13:11.134Z,100267.91
2022-11-02T01:15:43.462Z,100269.97
2022-11-02T01:18:21.715Z,100264.50
2022-11-02T01:21:48.622Z,100276.16
2022-11-02T01:24:34.764Z,100267.59
2022-11-02T01:27:15.693Z,100260.69
2022-11-02T01:30:20.196Z,100271.13
2022-11-02T01:32:54.520Z,100269.22
2022-11-02T01:35:30.546Z,100273.91
2022-11-02T01:38:12.219Z,100282.94
2022-11-02T01:40:52.016Z,100284.97
2022-11-02T01:43:42.644Z,100280.56
2022-11-02T01:49:39.896Z,100294.19
2022-11-02T01:52:49.311Z,100290.44
2022-11-02T01:58:38.478Z,100287.88
2022-11-02T02:01:21.105Z,100286.38
2022-11-02T02:04:03.442Z,100286.56
2022-11-02T02:06:52.143Z,100281.16
2022-11-02T02:09:30.354Z,100282.69
2022-11-02T02:15:18.148Z,100271.72
2022-11-02T02:18:22.392Z,100269.63
2022-11-02T02:21:33.209Z,100262.09
2022-11-02T02:24:21.613Z,100277.63
2022-11-02T02:27:32.621Z,100284.97
2022-11-02T02:30:16.687Z,100273.78
2022-11-02T02:33:04.028Z,100287.63
2022-11-02T02:36:37.695Z,100289.25
2022-11-02T02:39:47.624Z,100287.56
2022-11-02T02:42:57.994Z,100286.84
2022-11-02T02:45:58.350Z,100308.66
2022-11-02T02:49:11.075Z,100297.00
2022-11-02T02:52:04.883Z,100296.72
2022-11-02T02:55:16.047Z,100298.38
2022-11-02T02:58:10.717Z,100289.25
2022-11-02T03:01:19.422Z,100293.44
2022-11-02T03:04:05.602Z,100302.69
2022-11-02T03:07:08.169Z,100293.81
2022-11-02T03:10:26.965Z,100308.28
2022-11-02T03:17:38.181Z,100299.25
2022-11-02T03:20:41.437Z,100306.16
2022-11-02T03:23:37.480Z,100303.88
2022-11-02T03:26:40.966Z,100302.88
2022-11-02T03:33:32.438Z,100319.66
2022-11-02T03:37:18.371Z,100319.94
2022-11-02T03:40:00.656Z,100320.88
2022-11-02T03:42:44.361Z,100333.00
2022-11-02T03:45:20.625Z,100328.41
2022-11-02T03:48:06.401Z,100324.13
2022-11-02T03:51:14.211Z,100320.31
2022-11-02T03:54:53.240Z,100320.03
2022-11-02T03:58:10.907Z,100315.94
2022-11-02T04:01:23.032Z,100321.22
2022-11-02T04:04:06.974Z,100309.13
2022-11-02T04:06:47.292Z,100312.47
2022-11-02T04:09:34.455Z,100319.47
2022-11-02T04:12:35.955Z,100312.38
2022-11-02T04:15:18.920Z,100312.16
2022-11-02T04:18:19.741Z,100311.56
2022-11-02T04:21:30.313Z,100328.53
2022-11-02T04:24:36.157Z,100319.94
2022-11-02T04:27:21.325Z,100324.25
2022-11-02T04:30:22.345Z,100336.81
2022-11-02T04:33:42.071Z,100339.03
2022-11-02T04:36:20.001Z,100329.41
2022-11-02T04:39:08.215Z,100336.38
2022-11-02T04:42:37.719Z,100345.53
2022-11-02T04:45:24.846Z,100325.97
2022-11-02T04:48:16.640Z,100335.13
2022-11-02T04:50:52.498Z,100328.50
2022-11-02T04:53:24.187Z,100333.63
2022-11-02T04:56:02.510Z,100336.44
2022-11-02T04:58:42.381Z,100341.53
2022-11-02T05:01:27.640Z,100341.25
2022-11-02T05:04:23.295Z,100346.09
2022-11-02T05:07:21.028Z,100354.16
2022-11-02T05:10:03.514Z,100360.03
2022-11-02T05:13:06.035Z,100365.78
2022-11-02T05:16:01.508Z,100373.84
2022-11-02T05:18:32.274Z,100371.84
2022-11-02T05:21:12.367Z,100371.50
2022-11-02T05:23:53.003Z,100375.22
2022-11-02T05:26:30.017Z,100378.56
2022-11-02T05:29:04.450Z,100371.16
2022-11-02T05:31:53.401Z,100376.03
2022-11-02T05:34:30.495Z,100375.22
2022-11-02T05:37:05.288Z,100378.91
2022-11-02T05:39:49.367Z,100382.25
2022-11-02T05:42:26.567Z,100387.13
2022-11-02T05:45:09.862Z,100392.66
2022-11-02T05:47:47.159Z,100397.25
2022-11-02T05:50:24.992Z,100387.66
2022-11-02T05:52:58.213Z,100379.13
2022-11-02T05:55:38.422Z,100406.78
2022-11-02T05:58:29.866Z,100410.47
2022-11-02T06:01:04.382Z,100412.31
2022-11-02T06:03:48.991Z,100422.31
2022-11-02T06:06:27.434Z,100422.66
2022-11-02T06:09:23.849Z,100433.44
2022-11-02T06:12:00.692Z,100446.91
2022-11-02T06:14:35.112Z,100435.69
2022-11-02T06:17:07.646Z,100449.28
2022-11-02T06:19:53.341Z,100450.47
2022-11-02T06:23:10.227Z,100461.56
2022-11-02T06:25:48.045Z,100465.00
2022-11-02T06:28:25.497Z,100467.53
2022-11-02T06:30:57.553Z,100471.91
2022-11-02T06:33:31.414Z,100467.69
2022-11-02T06:36:04.545Z,100471.19
2022-11-02T06:38:38.683Z,100484.50
2022-11-02T06:41:08.630Z,100481.63
2022-11-02T06:43:48.001Z,100479.44
2022-11-02T06:46:30.175Z,100478.25
2022-11-02T06:49:06.566Z,100476.41
2022-11-02T06:51:51.267Z,100488.53
2022-11-02T06:54:47.695Z,100486.06
2022-11-02T06:57:42.798Z,100500.53
2022-11-02T07:00:25.535Z,100488.03
2022-11-02T07:03:21.943Z,100495.56
2022-11-02T07:05:59.768Z,100507.41
2022-11-02T07:08:52.251Z,100497.44
2022-11-02T07:12:26.545Z,100502.16
2022-11-02T07:15:33.963Z,100497.59
2022-11-02T07:18:11.402Z,100498.28
2022-11-02T07:20:55.630Z,100510.78
2022-11-02T07:23:31.761Z,100497.53
2022-11-02T07:29:47.366Z,100509.19
2022-11-02T07:32:45.100Z,100504.94
2022-11-02T07:35:51.448Z,100523.28
2022-11-02T07:39:09.474Z,100515.97
2022-11-02T07:42:03.263Z,100517.09
2022-11-02T07:49:21.225Z,100533.56
2022-11-02T07:51:58.621Z,100543.97
2022-11-02T07:54:53.710Z,100547.56
2022-11-02T07:57:28.710Z,100532.25
2022-11-02T08:00:59.697Z,100547.03
2022-11-02T08:03:41.192Z,100522.09
2022-11-02T08:06:11.627Z,100533.84
2022-11-02T08:08:44.754Z,100526.81
2022-11-02T08:11:35.424Z,100537.84
2022-11-02T08:14:11.140Z,100538.31
2022-11-02T08:17:10.323Z,100538.94
2022-11-02T08:24:25.421Z,100546.78
2022-11-02T08:26:55.517Z,100535.63
2022-11-02T08:32:47.270Z,100529.22
2022-11-02T08:35:22.740Z,100524.00
2022-11-02T08:38:12.391Z,100521.97
2022-11-02T08:40:48.337Z,100524.13
2022-11-02T08:43:19.828Z,100522.38
2022-11-02T08:48:41.310Z,100524.94
2022-11-02T08:51:12.354Z,100525.34
2022-11-02T08:53:41.224Z,100519.78
2022-11-02T08:56:08.792Z,100529.56
2022-11-02T08:59:03.353Z,100524.72
2022-11-02T09:01:45.004Z,100523.03
2022-11-02T09:04:20.200Z,100530.88
2022-11-02T09:06:55.106Z,100528.00
2022-11-02T09:09:24.755Z,100530.88
2022-11-02T09:11:59.927Z,100526.41
2022-11-02T09:14:32.854Z,100526.69
2022-11-02T09:17:02.143Z,100507.78
2022-11-02T09:19:36.270Z,100514.66
2022-11-02T09:22:06.428Z,100517.44
2022-11-02T09:24:34.446Z,100520.72
2022-11-02T09:27:04.706Z,100520.81
2022-11-02T09:29:42.541Z,100512.97
2022-11-02T09:32:16.354Z,100526.94
2022-11-02T09:34:45.552Z,100519.00
2022-11-02T09:37:18.254Z,100521.50
2022-11-02T09:39:56.516Z,100514.50
2022-11-02T09:42:36.106Z,100509.34
2022-11-02T09:45:14.261Z,100512.88
2022-11-02T09:48:16.066Z,100513.28
2022-11-02T09:50:51.945Z,100501.34
2022-11-02T09:53:43.584Z,100509.22
2022-11-02T09:56:26.071Z,100508.72
2022-11-02T09:59:18.385Z,100510.88
2022-11-02T10:02:08.058Z,100497.75
2022-11-02T10:05:23.206Z,100485.03
2022-11-02T10:08:26.408Z,100487.19
2022-11-02T10:11:19.471Z,100495.06
2022-11-02T10:13:59.370Z,100489.50
2022-11-02T10:16:39.889Z,100495.47
2022-11-02T10:19:15.840Z,100497.63
2022-11-02T10:21:49.353Z,100503.69
2022-11-02T10:24:47.200Z,100511.34
2022-11-02T10:27:35.654Z,100505.66
2022-11-02T10:30:16.022Z,100491.34
2022-11-02T10:32:45.858Z,100490.66
2022-11-02T10:35:37.249Z,100494.44
2022-11-02T10:38:58.203Z,100492.91
2022-11-02T10:41:36.408Z,100495.63
2022-11-02T10:44:27.218Z,100487.66
2022-11-02T10:47:18.242Z,100500.25
2022-11-02T10:50:34.192Z,100487.84
2022-11-02T10:53:27.505Z,100482.72
2022-11-02T10:56:09.788Z,100465.53
2022-11-02T10:58:42.131Z,100465.09
2022-11-02T11:01:14.147Z,100456.00
2022-11-02T11:04:04.774Z,100467.56
2022-11-02T11:06:44.174Z,100464.06
2022-11-02T11:09:22.194Z,100458.75
2022-11-02T11:12:48.051Z,100465.13
2022-11-02T11:21:10.273Z,100462.44
2022-11-02T11:23:41.211Z,100457.88
2022-11-02T11:26:36.672Z,100461.94
2022-11-02T11:29:25.261Z,100454.06
2022-11-02T11:31:55.128Z,100454.97
2022-11-02T11:34:47.246Z,100445.69
2022-11-02T11:37:33.628Z,100449.88
2022-11-02T11:40:23.001Z,100449.91
2022-11-02T11:43:02.415Z,100440.78
2022-11-02T11:45:35.020Z,100436.84
2022-11-02T11:48:27.168Z,100444.84
2022-11-02T11:50:56.414Z,100442.19
2022-11-02T11:53:29.289Z,100452.94
2022-11-02T11:55:59.957Z,100435.53
2022-11-02T11:58:32.109Z,100438.31
2022-11-02T12:01:47.682Z,100438.19
2022-11-02T12:04:27.722Z,100431.38
2022-11-02T12:07:20.557Z,100424.84
2022-11-02T12:10:01.466Z,100422.78
2022-11-02T12:12:40.898Z,100415.91
2022-11-02T12:15:26.866Z,100421.19
2022-11-02T12:18:20.613Z,100417.56
2022-11-02T12:21:21.833Z,100417.81
2022-11-02T12:24:17.115Z,100413.25
2022-11-02T12:27:09.008Z,100417.44
2022-11-02T12:30:01.219Z,100411.88
2022-11-02T12:32:45.233Z,100410.50
2022-11-02T12:35:53.274Z,100413.81
2022-11-02T12:38:38.186Z,100412.53
2022-11-02T12:41:12.708Z,100407.56
2022-11-02T12:43:46.936Z,100413.38
2022-11-02T12:46:49.107Z,100407.53
2022-11-02T12:49:36.069Z,100413.81
2022-11-02T12:52:45.735Z,100412.41
2022-11-02T12:55:21.569Z,100401.63
2022-11-02T12:58:04.309Z,100399.91
2022-11-02T13:00:37.688Z,100405.78
2022-11-02T13:03:33.225Z,100402.38
2022-11-02T13:06:06.682Z,100408.88
2022-11-02T13:09:09.783Z,100417.00
2022-11-02T13:11:47.667Z,100407.78
2022-11-02T13:14:22.397Z,100401.06
2022-11-02T13:17:14.616Z,100406.47
2022-11-02T13:19:50.633Z,100410.59
2022-11-02T13:22:23.194Z,100419.38
2022-11-02T13:24:57.634Z,100422.22
2022-11-02T13:27:38.578Z,100407.03
2022-11-02T13:30:19.283Z,100417.19
2022-11-02T13:33:04.191Z,100411.00
2022-11-02T13:35:45.716Z,100414.94
2022-11-02T13:38:20.772Z,100413.66
2022-11-02T13:41:04.570Z,100420.09
2022-11-02T13:44:18.464Z,100415.97
2022-11-02T13:46:58.884Z,100420.19
2022-11-02T13:49:39.195Z,100414.69
2022-11-02T13:52:15.503Z,100406.19
2022-11-02T13:55:01.264Z,100410.38
2022-11-02T13:57:33.576Z,100410.03
2022-11-02T14:00:26.773Z,100413.97
2022-11-02T14:03:04.209Z,100407.97
2022-11-02T14:06:01.437Z,100410.44
2022-11-02T14:08:55.871Z,100417.16
2022-11-02T14:11:28.221Z,100414.34
2022-11-02T14:13:55.860Z,100417.16
2022-11-02T14:16:57.880Z,100417.84
2022-11-02T14:19:34.516Z,100413.66
2022-11-02T14:22:26.821Z,100422.63
2022-11-02T14:25:18.375Z,100417.66
2022-11-02T14:27:48.902Z,100421.91
2022-11-02T14:30:48.565Z,100421.16
2022-11-02T14:34:05.363Z,100417.00
2022-11-02T14:37:22.016Z,100412.16
2022-11-02T14:40:32.066Z,100406.81
2022-11-02T14:43:49.499Z,100410.16
2022-11-02T14:46:35.128Z,100411.72
2022-11-02T14:49:18.644Z,100421.69
2022-11-02T14:51:57.496Z,100426.69
2022-11-02T14:54:33.409Z,100420.81
2022-11-02T14:57:06.611Z,100430.53
2022-11-02T14:59:45.808Z,100426.78
2022-11-02T15:02:42.994Z,100430.13
2022-11-02T15:05:30.651Z,100424.41
2022-11-02T15:08:25.976Z,100429.56
2022-11-02T15:10:55.702Z,100432.47
2022-11-02T15:13:37.182Z,100434.28
2022-11-02T15:16:11.906Z,100422.72
2022-11-02T15:18:40.801Z,100434.13
2022-11-02T15:21:15.286Z,100452.13
2022-11-02T15:23:48.192Z,100443.41
2022-11-02T15:26:55.660Z,100444.19
2022-11-02T15:29:45.550Z,100444.84
2022-11-02T15:32:26.894Z,100451.06
2022-11-02T15:35:03.560Z,100462.59
2022-11-02T15:37:50.336Z,100460.81
2022-11-02T15:40:37.679Z,100464.19
2022-11-02T15:43:37.258Z,100456.53
2022-11-02T15:46:29.396Z,100466.22
2022-11-02T15:49:29.167Z,100474.44
2022-11-02T15:52:20.748Z,100477.53
2022-11-02T15:55:10.876Z,100483.97
2022-11-02T15:58:16.200Z,100480.34
2022-11-02T16:01:36.184Z,100479.22
2022-11-02T16:04:20.109Z,100473.13
2022-11-02T16:06:49.758Z,100476.50
2022-11-02T16:12:37.925Z,100496.94
2022-11-02T16:15:20.876Z,100494.38
2022-11-02T16:17:53.484Z,100496.75
2022-11-02T16:20:35.346Z,100494.31
2022-11-02T16:23:13.614Z,100494.38
2022-11-02T16:25:48.249Z,100498.31
2022-11-02T16:28:23.288Z,100503.97
2022-11-02T16:31:18.527Z,100503.25
2022-11-02T16:34:22.009Z,100502.31
2022-11-02T16:36:51.270Z,100513.59
2022-11-02T16:39:26.865Z,100518.91
2022-11-02T16:42:00.240Z,100516.88
2022-11-02T16:44:35.069Z,100523.22
2022-11-02T16:47:08.242Z,100522.22
2022-11-02T16:50:26.118Z,100523.22
2022-11-02T16:53:12.453Z,100516.91
2022-11-02T17:00:36.587Z,100527.06
2022-11-02T17:06:27.681Z,100527.34
2022-11-02T17:09:11.397Z,100529.75
2022-11-02T17:11:46.947Z,100536.84
2022-11-02T17:14:33.226Z,100530.03
2022-11-02T17:17:42.835Z,100540.22
2022-11-02T17:21:03.047Z,100537.69
2022-11-02T17:24:35.676Z,100547.28
2022-11-02T17:28:00.558Z,100543.47
2022-11-02T17:31:01.903Z,100540.22
2022-11-02T17:33:39.712Z,100544.31
2022-11-02T17:36:52.492Z,100543.09
2022-11-02T17:39:29.854Z,100543.94
2022-11-02T17:46:02.003Z,100540.88
2022-11-02T17:48:47.423Z,100544.78
2022-11-02T17:51:35.468Z,100548.50
2022-11-02T17:54:37.396Z,100541.78
2022-11-02T17:57:29.186Z,100544.31
2022-11-02T18:00:21.068Z,100547.09
2022-11-02T18:03:29.906Z,100550.84
2022-11-02T18:09:33.487Z,100549.25
2022-11-02T18:12:15.112Z,100552.88
2022-11-02T18:15:09.864Z,100548.78
2022-11-02T18:18:07.552Z,100542.53
2022-11-02T18:20:50.032Z,100548.25
2022-11-02T18:24:01.331Z,100541.53
2022-11-02T18:26:52.098Z,100540.28
2022-11-02T18:32:47.786Z,100539.00
2022-11-02T18:38:18.786Z,100534.16
2022-11-02T18:41:29.941Z,100545.78
2022-11-02T18:44:24.000Z,100517.00
2022-11-02T18:47:56.172Z,100530.78
2022-11-02T18:53:50.834Z,100535.91
2022-11-02T18:56:41.762Z,100533.31
2022-11-02T19:03:16.837Z,100517.69
2022-11-02T19:06:40.421Z,100521.91
2022-11-02T19:12:35.339Z,100518.41
2022-11-02T19:15:19.577Z,100526.06
2022-11-02T19:18:27.466Z,100531.63
2022-11-02T19:22:21.898Z,100530.06
2022-11-02T19:28:54.688Z,100522.47
2022-11-02T19:31:57.209Z,100529.94
2022-11-02T19:34:50.844Z,100522.91
2022-11-02T19:38:14.607Z,100530.31
2022-11-02T19:41:27.590Z,100538.56
2022-11-02T19:44:03.974Z,100539.44
2022-11-02T19:47:16.020Z,100547.66
2022-11-02T19:50:10.293Z,100532.19
2022-11-02T19:53:15.199Z,100536.59
2022-11-02T19:56:38.763Z,100534.44
2022-11-02T19:59:50.084Z,100527.28
2022-11-02T20:07:34.370Z,100533.78
2022-11-02T20:11:34.367Z,100536.09
2022-11-02T20:18:19.000Z,100558.97
2022-11-02T20:21:56.181Z,100561.63
2022-11-02T20:25:46.674Z,100556.84
2022-11-02T20:29:20.074Z,100555.09
2022-11-02T20:32:47.520Z,100550.31
2022-11-02T20:35:44.981Z,100552.28
2022-11-02T20:39:41.860Z,100564.31
2022-11-02T20:44:33.605Z,100559.66
2022-11-02T20:51:57.834Z,100555.00
2022-11-02T20:55:46.692Z,100570.41
2022-11-02T20:59:02.967Z,100568.91
2022-11-02T21:01:51.175Z,100561.81
2022-11-02T21:04:54.405Z,100563.88
2022-11-02T21:08:12.966Z,100558.47
2022-11-02T21:10:57.078Z,100561.81
2022-11-02T21:16:50.653Z,100549.34
2022-11-02T21:19:22.565Z,100546.44
2022-11-02T21:22:29.289Z,100554.16
2022-11-02T21:25:41.561Z,100554.22
2022-11-02T21:28:41.547Z,100525.47
2022-11-02T21:31:21.989Z,100551.53
2022-11-02T21:34:00.936Z,100553.41
2022-11-02T21:36:32.556Z,100545.94
2022-11-02T21:39:36.905Z,100547.06
2022-11-02T21:42:12.876Z,100549.41
2022-11-02T21:44:50.976Z,100546.97
2022-11-02T21:47:34.213Z,100539.63
2022-11-02T21:54:41.268Z,100536.94
2022-11-02T21:57:21.174Z,100539.16
2022-11-02T22:00:22.603Z,100531.53
2022-11-02T22:03:25.436Z,100542.88
2022-11-02T22:06:10.369Z,100541.22
2022-11-02T22:09:30.710Z,100549.69
2022-11-02T22:19:50.569Z,100543.44
2022-11-02T22:22:22.472Z,100548.56
2022-11-02T22:25:46.906Z,100553.44
2022-11-02T22:31:43.549Z,100562.00
2022-11-02T22:34:24.386Z,100566.03
2022-11-02T22:40:26.895Z,100559.50
2022-11-02T22:43:54.467Z,100568.91
2022-11-02T22:46:29.545Z,100567.91
2022-11-02T22:49:19.270Z,100572.50
2022-11-02T22:52:17.450Z,100560.72
2022-11-02T22:55:14.802Z,100574.03
2022-11-02T22:57:48.251Z,100566.78
2022-11-02T23:00:52.474Z,100565.38
2022-11-02T23:03:30.039Z,100570.03
2022-11-02T23:10:44.683Z,100582.16
2022-11-02T23:18:18.247Z,100582.56
2022-11-02T23:20:56.386Z,100578.00
2022-11-02T23:24:03.834Z,100576.94
2022-11-02T23:27:32.279Z,100585.16
2022-11-02T23:31:03.728Z,100581.06
2022-11-02T23:33:50.942Z,100585.75
2022-11-02T23:36:22.829Z,100572.69
2022-11-02T23:39:12.600Z,100569.78
2022-11-02T23:41:44.661Z,100575.44
2022-11-02T23:44:19.400Z,100569.59
2022-11-02T23:46:59.694Z,100566.69
2022-11-02T23:49:55.060Z,100574.16
2022-11-02T23:52:46.001Z,100564.72
2022-11-02T23:55:40.494Z,100578.91
2022-11-02T23:58:18.896Z,100582.63
